Time;durP1;ratioP1;P1;durP2;ratioP2;P2;SDS_P1;SDS_P2;PMS_P1;PMS_P2;Temp;Humidity;BMP_temperature;BMP_pressure;BME280_temperature;BME280_humidity;BME280_pressure;Samples;Min_cycle;Max_cycle;Signal;HPM_P1;HPM_P2
2022/10/23 00:01:29;;;;;;;6.63;4.72;;;;;;;-140.72;100.00;52928.63;4926977;29;20043;-66
2022/10/23 00:04:00;;;;;;;6.70;4.82;;;;;;;-140.72;100.00;52924.56;4929618;28;20055;-66
2022/10/23 00:06:27;;;;;;;10.80;6.18;;;;;;;-140.72;100.00;52910.34;4929080;28;20025;-66
2022/10/23 00:08:53;;;;;;;6.28;5.20;;;;;;;-140.72;100.00;52932.66;4954045;28;20436;-66
2022/10/23 00:11:22;;;;;;;9.60;5.45;;;;;;;-140.72;100.00;52892.09;4933289;29;20032;-65
2022/10/23 00:13:48;;;;;;;11.23;4.78;;;;;;;-140.72;100.00;52906.28;4931665;28;20077;-66
2022/10/23 00:16:13;;;;;;;10.88;5.45;;;;;;;-140.72;100.00;52922.53;4914321;28;20036;-66
2022/10/23 00:18:39;;;;;;;11.40;5.32;;;;;;;-140.72;100.00;52946.88;4921835;28;20020;-66
2022/10/23 00:21:07;;;;;;;7.72;5.82;;;;;;;-140.72;100.00;52865.69;4926571;29;20035;-66
2022/10/23 00:23:32;;;;;;;9.02;5.15;;;;;;;-140.72;100.00;52902.22;4929396;28;20036;-65
2022/10/23 00:25:59;;;;;;;7.05;5.10;;;;;;;-140.72;100.00;52940.78;4934694;29;20024;-65
2022/10/23 00:28:24;;;;;;;6.25;4.43;;;;;;;-140.72;100.00;52922.53;4906530;28;20025;-66
2022/10/23 00:30:50;;;;;;;8.65;4.90;;;;;;;-140.72;100.00;52916.44;4922664;28;20058;-67
2022/10/23 00:33:15;;;;;;;8.30;5.40;;;;;;;-140.72;100.00;52922.53;4923667;28;20086;-65
2022/10/23 00:35:42;;;;;;;5.88;4.60;;;;;;;-140.72;100.00;52950.94;4963073;28;20109;-66
2022/10/23 00:38:07;;;;;;;6.72;5.15;;;;;;;-140.72;100.00;52890.06;4915579;28;20024;-66
2022/10/23 00:40:33;;;;;;;6.95;6.05;;;;;;;-140.72;100.00;52938.75;4934766;28;20036;-67
2022/10/23 00:42:59;;;;;;;8.75;6.00;;;;;;;-140.72;100.00;52894.13;4921824;28;20117;-66
2022/10/23 00:45:26;;;;;;;6.57;4.97;;;;;;;-140.72;100.00;52898.16;4919754;28;20406;-66
2022/10/23 00:47:54;;;;;;;5.57;4.95;;;;;;;-140.72;100.00;52912.38;4919088;28;20147;-67
2022/10/23 00:50:23;;;;;;;6.43;5.35;;;;;;;-140.72;100.00;52944.84;4916558;29;20060;-66
2022/10/23 00:52:52;;;;;;;7.78;5.35;;;;;;;-140.72;100.00;52894.13;4930861;29;20031;-66
2022/10/23 00:55:46;;;;;;;8.48;5.88;;;;;;;-140.72;100.00;52908.31;4921022;28;20020;-66
2022/10/23 00:58:19;;;;;;;8.95;5.93;;;;;;;-140.72;100.00;52916.44;4925236;29;20097;-66
2022/10/23 01:00:54;;;;;;;9.75;5.65;;;;;;;-140.72;100.00;52948.91;4922913;29;20494;-66
2022/10/23 01:03:23;;;;;;;14.65;6.25;;;;;;;-140.72;100.00;52924.56;4925823;28;20032;-66
2022/10/23 01:05:54;;;;;;;6.75;5.20;;;;;;;-140.72;100.00;52912.38;4935684;28;20036;-66
2022/10/23 01:08:50;;;;;;;7.43;5.20;;;;;;;-140.72;100.00;52928.63;4920634;28;20526;-66
2022/10/23 01:11:27;;;;;;;10.18;5.20;;;;;;;-140.72;100.00;52952.97;4928430;28;20474;-66
2022/10/23 01:14:07;;;;;;;10.20;5.75;;;;;;;-140.72;100.00;52902.22;4935389;29;20089;-66
2022/10/23 01:16:43;;;;;;;7.25;6.18;;;;;;;-140.72;100.00;52898.16;4934431;28;20038;-66
2022/10/23 01:19:14;;;;;;;8.75;4.97;;;;;;;-140.72;100.00;52886.00;4925280;28;20126;-66
2022/10/23 01:21:55;;;;;;;9.10;5.43;;;;;;;-140.72;100.00;52898.16;4934939;28;20024;-66
2022/10/23 01:24:41;;;;;;;7.63;5.47;;;;;;;-140.72;100.00;52912.38;4921948;29;20032;-67
2022/10/23 01:27:28;;;;;;;10.00;5.30;;;;;;;-140.72;100.00;52894.13;4956243;28;20039;-66
2022/10/23 01:30:15;;;;;;;6.15;5.55;;;;;;;-140.72;100.00;52916.44;4928542;28;20502;-67
2022/10/23 01:32:49;;;;;;;7.80;5.05;;;;;;;-140.72;100.00;52918.47;4934442;29;20475;-66
2022/10/23 01:35:21;;;;;;;9.73;5.20;;;;;;;-140.72;100.00;52910.34;4922831;29;20055;-66
2022/10/23 01:37:52;;;;;;;7.93;4.55;;;;;;;-140.72;100.00;52922.53;4923345;29;20030;-66
2022/10/23 01:40:29;;;;;;;8.68;5.45;;;;;;;-140.72;100.00;52910.34;4935217;29;20024;-66
2022/10/23 01:43:01;;;;;;;8.13;5.35;;;;;;;-140.72;100.00;52942.81;4930820;29;20036;-66
2022/10/23 01:45:46;;;;;;;9.65;5.80;;;;;;;-140.72;100.00;52967.16;4933974;29;20471;-66
2022/10/23 01:48:16;;;;;;;8.55;4.93;;;;;;;-140.72;100.00;52922.53;4919328;29;20086;-67
2022/10/23 01:50:44;;;;;;;8.77;5.00;;;;;;;-140.72;100.00;52950.94;4925886;28;20027;-66
2022/10/23 01:53:10;;;;;;;5.90;4.43;;;;;;;-140.72;100.00;52914.41;4924581;28;20035;-66
2022/10/23 01:55:38;;;;;;;9.07;5.30;;;;;;;-140.72;100.00;52963.13;4937983;29;20434;-66
2022/10/23 01:58:07;;;;;;;6.65;5.45;;;;;;;-140.72;100.00;52920.50;4919391;29;20035;-66
2022/10/23 02:00:35;;;;;;;6.78;4.95;;;;;;;-140.72;100.00;53009.78;4933483;28;20051;-66
2022/10/23 02:03:03;;;;;;;6.18;4.60;;;;;;;-140.72;100.00;52900.19;4925882;29;20035;-66
2022/10/23 02:05:29;;;;;;;8.45;5.78;;;;;;;-140.72;100.00;52942.81;4936831;28;20087;-66
2022/10/23 02:07:56;;;;;;;7.47;5.55;;;;;;;-140.72;100.00;52890.06;4920766;28;20035;-67
2022/10/23 02:10:30;;;;;;;6.18;5.57;;;;;;;-140.72;100.00;52930.66;4937960;29;20032;-66
2022/10/23 02:13:04;;;;;;;6.60;5.07;;;;;;;-140.72;100.00;52875.84;4937551;28;20042;-67
2022/10/23 02:15:40;;;;;;;7.38;5.03;;;;;;;-140.72;100.00;52942.81;4937709;29;20028;-66
2022/10/23 02:18:37;;;;;;;10.48;4.78;;;;;;;-140.72;100.00;52922.53;4937459;28;20390;-67
2022/10/23 02:21:12;;;;;;;5.50;4.93;;;;;;;-140.72;100.00;52959.06;4920522;28;20086;-66
2022/10/23 02:23:51;;;;;;;5.95;5.10;;;;;;;-140.72;100.00;52910.34;4927888;29;20024;-66
2022/10/23 02:26:32;;;;;;;5.65;4.63;;;;;;;-140.72;100.00;52910.34;4932458;28;20130;-66
2022/10/23 02:29:14;;;;;;;8.88;5.82;;;;;;;-140.72;100.00;52922.53;4914683;29;20091;-66
2022/10/23 02:31:40;;;;;;;8.05;4.80;;;;;;;-140.72;100.00;52932.66;4997807;28;20036;-67
2022/10/23 02:34:05;;;;;;;5.88;4.85;;;;;;;-140.72;100.00;52959.06;4982546;23;20054;-68
2022/10/23 02:36:31;;;;;;;8.18;5.15;;;;;;;-140.72;100.00;52967.16;4975593;28;20034;-71
2022/10/23 02:38:56;;;;;;;7.32;4.43;;;;;;;-140.72;100.00;52952.97;4980389;28;20451;-67
2022/10/23 02:41:32;;;;;;;7.88;5.20;;;;;;;-140.72;100.00;52926.59;4990220;28;20072;-67
2022/10/23 02:44:22;;;;;;;8.07;4.75;;;;;;;-140.72;100.00;52902.22;4992467;28;20019;-68
2022/10/23 02:47:16;;;;;;;7.43;4.50;;;;;;;-140.72;100.00;52910.34;4990937;28;20477;-67
2022/10/23 02:50:00;;;;;;;5.93;4.47;;;;;;;-140.72;100.00;52938.75;4990240;28;20041;-71
2022/10/23 02:53:02;;;;;;;10.85;4.82;;;;;;;-140.72;100.00;52965.16;4987936;28;20105;-68
2022/10/23 02:55:41;;;;;;;6.13;4.57;;;;;;;-140.72;100.00;52892.09;4986735;28;20073;-68
2022/10/23 02:58:12;;;;;;;8.65;5.00;;;;;;;-140.72;100.00;52926.59;4991627;28;20105;-68
2022/10/23 03:00:42;;;;;;;7.20;4.80;;;;;;;-140.72;100.00;52971.22;4991355;28;20097;-68
2022/10/23 03:03:16;;;;;;;5.68;4.07;;;;;;;-140.72;100.00;52932.66;4991353;28;20033;-70
2022/10/23 03:05:43;;;;;;;4.90;3.70;;;;;;;-140.72;100.00;52942.81;4991958;28;20069;-70
2022/10/23 03:08:11;;;;;;;7.03;4.10;;;;;;;-140.72;100.00;52912.38;4988156;28;20541;-72
2022/10/23 03:10:36;;;;;;;5.10;3.97;;;;;;;-140.72;100.00;52890.06;4991041;28;20056;-70
2022/10/23 03:13:02;;;;;;;8.57;4.80;;;;;;;-140.72;100.00;52916.44;4991450;28;20026;-67
2022/10/23 03:15:28;;;;;;;4.82;3.63;;;;;;;-140.72;100.00;52948.91;4990815;28;20019;-68
2022/10/23 03:17:54;;;;;;;5.93;4.05;;;;;;;-140.72;100.00;52926.59;4991638;28;20097;-70
2022/10/23 03:20:20;;;;;;;5.15;4.35;;;;;;;-140.72;100.00;52898.16;4991297;28;20033;-69
2022/10/23 03:22:45;;;;;;;4.60;3.92;;;;;;;-140.72;100.00;52948.91;4991051;28;20026;-66
2022/10/23 03:25:11;;;;;;;5.80;4.22;;;;;;;-140.72;100.00;52922.53;4992083;28;20022;-68
2022/10/23 03:27:36;;;;;;;4.47;3.38;;;;;;;-140.72;100.00;52967.16;4991362;28;20069;-68
2022/10/23 03:30:03;;;;;;;6.97;4.05;;;;;;;-140.72;100.00;52938.75;4991335;28;20022;-68
2022/10/23 03:32:29;;;;;;;12.98;5.00;;;;;;;-140.72;100.00;52922.53;4991572;28;20038;-67
2022/10/23 03:34:54;;;;;;;5.97;3.78;;;;;;;-140.72;100.00;52914.41;5008439;28;20058;-68
2022/10/23 03:37:19;;;;;;;7.60;4.13;;;;;;;-140.72;100.00;52910.34;5009350;28;20025;-69
2022/10/23 03:39:45;;;;;;;5.00;3.83;;;;;;;-140.72;100.00;52900.19;5010627;28;20045;-69
2022/10/23 03:42:10;;;;;;;6.38;4.03;;;;;;;-140.72;100.00;52959.06;5007207;28;20072;-66
2022/10/23 03:44:36;;;;;;;5.25;3.92;;;;;;;-140.72;100.00;52902.22;5010115;28;20026;-68
2022/10/23 03:47:01;;;;;;;8.30;4.53;;;;;;;-140.72;100.00;52914.41;5010451;28;20121;-68
2022/10/23 03:49:27;;;;;;;6.05;4.38;;;;;;;-140.72;100.00;52902.22;5010789;28;20079;-68
2022/10/23 03:51:52;;;;;;;6.72;3.42;;;;;;;-140.72;100.00;52914.41;5009874;28;20380;-68
2022/10/23 03:54:23;;;;;;;7.10;4.07;;;;;;;-140.72;100.00;52946.88;5010397;28;20018;-67
2022/10/23 03:56:49;;;;;;;8.77;3.05;;;;;;;-140.72;100.00;52910.34;5010021;28;20045;-66
2022/10/23 03:59:16;;;;;;;6.88;3.90;;;;;;;-140.72;100.00;52918.47;5009984;28;20029;-68
2022/10/23 04:01:41;;;;;;;5.82;3.55;;;;;;;-140.72;100.00;52950.94;5009745;28;20022;-67
2022/10/23 04:04:06;;;;;;;7.50;5.10;;;;;;;-140.72;100.00;52928.63;5009919;28;20033;-69
2022/10/23 04:06:32;;;;;;;6.28;4.05;;;;;;;-140.72;100.00;52914.41;5009555;28;20057;-69
2022/10/23 04:08:57;;;;;;;6.38;3.75;;;;;;;-140.72;100.00;52932.66;5010376;28;20057;-67
2022/10/23 04:11:25;;;;;;;5.55;3.13;;;;;;;-140.72;100.00;52983.41;5009134;28;20030;-67
2022/10/23 04:13:51;;;;;;;9.05;3.78;;;;;;;-140.72;100.00;52965.16;5010367;28;20029;-67
2022/10/23 04:16:16;;;;;;;4.70;3.88;;;;;;;-140.72;100.00;52940.78;5009114;28;20033;-67
2022/10/23 04:18:42;;;;;;;4.03;3.30;;;;;;;-140.72;100.00;52930.66;5008432;28;20219;-67
2022/10/23 04:21:07;;;;;;;4.80;3.58;;;;;;;-140.72;100.00;52926.59;5009031;28;20374;-68
2022/10/23 04:23:33;;;;;;;6.63;3.75;;;;;;;-140.72;100.00;53007.75;5008682;28;20021;-70
2022/10/23 04:25:58;;;;;;;8.13;3.85;;;;;;;-140.72;100.00;52955.00;5007458;28;20062;-68
2022/10/23 04:28:25;;;;;;;5.43;3.42;;;;;;;-140.72;100.00;52920.50;5008535;28;20096;-68
2022/10/23 04:30:50;;;;;;;5.97;3.03;;;;;;;-140.72;100.00;52924.56;5009129;28;20107;-71
2022/10/23 04:33:15;;;;;;;6.63;3.92;;;;;;;-140.72;100.00;52934.69;5007117;28;20070;-68
2022/10/23 04:35:43;;;;;;;4.88;3.97;;;;;;;-140.72;100.00;52944.84;5008601;28;20022;-68
2022/10/23 04:38:09;;;;;;;5.80;3.70;;;;;;;-140.72;100.00;52957.03;5008932;28;20022;-69
2022/10/23 04:40:34;;;;;;;7.93;3.90;;;;;;;-140.72;100.00;52973.25;5007383;28;20022;-67
2022/10/23 04:43:00;;;;;;;5.90;3.90;;;;;;;-140.72;100.00;52946.88;5008715;28;20025;-70
2022/10/23 04:45:25;;;;;;;4.75;3.83;;;;;;;-140.72;100.00;52952.97;5008389;28;20022;-68
2022/10/23 04:47:52;;;;;;;6.63;3.45;;;;;;;-140.72;100.00;52957.03;5007612;28;20025;-68
2022/10/23 04:50:19;;;;;;;5.97;3.92;;;;;;;-140.72;100.00;52906.28;5008340;28;20021;-67
2022/10/23 04:52:44;;;;;;;5.93;3.70;;;;;;;-140.72;100.00;52912.38;5007496;28;20021;-70
2022/10/23 04:55:10;;;;;;;5.13;3.72;;;;;;;-140.72;100.00;52910.34;5006963;28;20029;-68
2022/10/23 04:57:36;;;;;;;5.78;3.72;;;;;;;-140.72;100.00;52936.72;5008507;28;20442;-68
2022/10/23 05:00:02;;;;;;;7.78;4.03;;;;;;;-140.72;100.00;52930.66;5008083;28;20022;-68
2022/10/23 05:02:28;;;;;;;5.07;3.55;;;;;;;-140.72;100.00;52942.81;5007355;28;20038;-72
2022/10/23 05:04:53;;;;;;;6.25;3.95;;;;;;;-140.72;100.00;52948.91;5008004;28;20369;-66
2022/10/23 05:07:18;;;;;;;9.55;4.57;;;;;;;-140.72;100.00;52920.50;5008937;28;20049;-67
2022/10/23 05:09:44;;;;;;;5.38;3.63;;;;;;;-140.72;100.00;52932.66;4999878;28;20116;-66
2022/10/23 05:12:09;;;;;;;4.05;3.50;;;;;;;-140.72;100.00;52912.38;5008446;28;20036;-65
2022/10/23 05:14:34;;;;;;;6.30;4.38;;;;;;;-140.72;100.00;52910.34;5005022;28;20039;-68
2022/10/23 05:17:06;;;;;;;5.97;3.58;;;;;;;-140.72;100.00;52930.66;5009121;28;20095;-66
2022/10/23 05:19:39;;;;;;;6.13;3.38;;;;;;;-140.72;100.00;52938.75;5009534;28;20017;-69
2022/10/23 05:22:05;;;;;;;7.45;4.28;;;;;;;-140.72;100.00;52942.81;5008315;28;20244;-67
2022/10/23 05:24:30;;;;;;;9.70;4.00;;;;;;;-140.72;100.00;52914.41;5007962;28;20108;-68
2022/10/23 05:26:56;;;;;;;6.38;3.72;;;;;;;-140.72;100.00;52926.59;5008127;28;20367;-67
2022/10/23 05:29:23;;;;;;;8.02;4.85;;;;;;;-140.72;100.00;52946.88;5007862;28;20034;-67
2022/10/23 05:31:53;;;;;;;5.68;3.78;;;;;;;-140.72;100.00;52950.94;5009183;28;20100;-66
2022/10/23 05:34:21;;;;;;;7.97;4.53;;;;;;;-140.72;100.00;52979.34;5008760;28;20100;-66
2022/10/23 05:36:47;;;;;;;7.82;4.28;;;;;;;-140.72;100.00;52916.44;5008103;28;20037;-67
2022/10/23 05:39:14;;;;;;;5.57;3.72;;;;;;;-140.72;100.00;52981.38;5008239;28;20033;-67
2022/10/23 05:41:40;;;;;;;5.60;4.03;;;;;;;-140.72;100.00;52950.94;5009212;28;20018;-66
2022/10/23 05:44:05;;;;;;;9.10;3.90;;;;;;;-140.72;100.00;52890.06;5007404;28;20044;-67
2022/10/23 05:46:30;;;;;;;6.28;3.45;;;;;;;-140.72;100.00;52920.50;5003893;28;20583;-67
2022/10/23 05:48:56;;;;;;;5.32;4.20;;;;;;;-140.72;100.00;52910.34;5002803;28;20103;-65
2022/10/23 05:51:22;;;;;;;6.45;4.53;;;;;;;-140.72;100.00;52938.75;5008460;28;20037;-69
2022/10/23 05:53:51;;;;;;;5.35;4.03;;;;;;;-140.72;100.00;52918.47;5009150;28;20018;-66
2022/10/23 05:56:18;;;;;;;5.95;3.95;;;;;;;-140.72;100.00;52948.91;5008524;28;20026;-66
2022/10/23 05:58:44;;;;;;;5.53;4.13;;;;;;;-140.72;100.00;52922.53;5008540;28;20042;-70
2022/10/23 06:01:12;;;;;;;8.15;4.78;;;;;;;-140.72;100.00;52967.16;5009053;28;20034;-66
2022/10/23 06:03:38;;;;;;;6.75;4.85;;;;;;;-140.72;100.00;52934.69;5007542;28;20022;-67
2022/10/23 06:06:05;;;;;;;6.82;4.53;;;;;;;-140.72;100.00;52934.69;5007293;28;20030;-66
2022/10/23 06:08:31;;;;;;;5.22;3.88;;;;;;;-140.72;100.00;52950.94;5009331;28;20028;-66
2022/10/23 06:10:56;;;;;;;5.45;4.00;;;;;;;-140.72;100.00;52942.81;5008667;28;20522;-66
2022/10/23 06:13:22;;;;;;;6.60;4.20;;;;;;;-140.72;100.00;52948.91;5007038;28;20109;-68
2022/10/23 06:15:47;;;;;;;5.88;4.93;;;;;;;-140.72;100.00;52904.25;5007254;28;20032;-66
2022/10/23 06:18:13;;;;;;;7.80;4.13;;;;;;;-140.72;100.00;52922.53;5007731;28;20133;-67
2022/10/23 06:20:39;;;;;;;8.98;4.35;;;;;;;-140.72;100.00;52910.34;5008105;28;20425;-69
2022/10/23 06:23:06;;;;;;;5.32;4.07;;;;;;;-140.72;100.00;52934.69;5009183;28;20034;-69
2022/10/23 06:25:31;;;;;;;6.60;3.80;;;;;;;-140.72;100.00;52928.63;5008445;28;20061;-68
2022/10/23 06:27:59;;;;;;;7.85;4.75;;;;;;;-140.72;100.00;52946.88;5010695;28;20053;-66
2022/10/23 06:30:25;;;;;;;5.93;4.22;;;;;;;-140.72;100.00;52908.31;5011655;28;20030;-67
2022/10/23 06:32:50;;;;;;;5.10;3.75;;;;;;;-140.72;100.00;52957.03;5009453;28;20072;-69
2022/10/23 06:35:16;;;;;;;5.18;3.80;;;;;;;-140.72;100.00;52918.47;5011750;28;20431;-66
2022/10/23 06:37:41;;;;;;;5.45;3.97;;;;;;;-140.72;100.00;52959.06;5011609;28;20200;-66
2022/10/23 06:40:07;;;;;;;5.75;3.75;;;;;;;-140.72;100.00;52920.50;5011991;28;20528;-66
2022/10/23 06:42:33;;;;;;;8.50;4.55;;;;;;;-140.72;100.00;52904.25;5012078;28;20041;-68
2022/10/23 06:44:59;;;;;;;6.65;4.35;;;;;;;-140.72;100.00;52926.59;5011859;28;20374;-66
2022/10/23 06:47:24;;;;;;;8.95;4.70;;;;;;;-140.72;100.00;52910.34;5011317;28;20018;-68
2022/10/23 06:49:49;;;;;;;4.70;3.40;;;;;;;-140.72;100.00;52918.47;5011668;28;20454;-67
2022/10/23 06:52:15;;;;;;;9.30;4.32;;;;;;;-140.72;100.00;52957.03;5011928;28;20013;-68
2022/10/23 06:54:40;;;;;;;6.60;4.45;;;;;;;-140.72;100.00;52975.28;5011043;28;20108;-68
2022/10/23 06:57:06;;;;;;;4.55;3.42;;;;;;;-140.72;100.00;52914.41;5011822;28;20021;-67
2022/10/23 06:59:31;;;;;;;5.80;3.65;;;;;;;-140.72;100.00;52936.72;5011104;28;20044;-67
2022/10/23 07:01:56;;;;;;;7.78;5.13;;;;;;;-140.72;100.00;52938.75;5010716;28;20104;-65
2022/10/23 07:04:22;;;;;;;5.50;4.53;;;;;;;-140.72;100.00;52926.59;5011154;28;20020;-65
2022/10/23 07:06:47;;;;;;;6.68;4.45;;;;;;;-140.72;100.00;52932.66;5011150;28;20055;-65
2022/10/23 07:09:13;;;;;;;5.75;4.35;;;;;;;-140.72;100.00;52934.69;5010980;28;20111;-65
2022/10/23 07:11:38;;;;;;;7.63;4.55;;;;;;;-140.72;100.00;52912.38;5010642;28;20080;-68
2022/10/23 07:14:03;;;;;;;6.53;4.55;;;;;;;-140.72;100.00;52918.47;5008911;28;20548;-66
2022/10/23 07:16:29;;;;;;;5.82;3.65;;;;;;;-140.72;100.00;52910.34;5009587;28;20021;-65
2022/10/23 07:18:58;;;;;;;6.30;4.00;;;;;;;-140.72;100.00;52930.66;5010069;28;20414;-68
2022/10/23 07:21:35;;;;;;;11.38;4.25;;;;;;;-140.72;100.00;52902.22;5009302;28;20053;-68
2022/10/23 07:24:02;;;;;;;5.28;4.03;;;;;;;-140.72;100.00;52898.16;5009969;28;20014;-65
2022/10/23 07:26:27;;;;;;;4.78;3.58;;;;;;;-140.72;100.00;52892.09;5010677;28;20583;-67
2022/10/23 07:28:54;;;;;;;6.15;4.47;;;;;;;-140.72;100.00;52910.34;5009594;28;20022;-68
2022/10/23 07:31:24;;;;;;;7.38;4.43;;;;;;;-140.72;100.00;52908.31;5009947;28;20018;-65
2022/10/23 07:33:49;;;;;;;5.35;3.45;;;;;;;-140.72;100.00;52928.63;5009772;28;20052;-69
2022/10/23 07:36:15;;;;;;;8.50;4.15;;;;;;;-140.72;100.00;52924.56;5006216;28;20030;-65
2022/10/23 07:38:40;;;;;;;5.47;3.80;;;;;;;-140.72;100.00;52910.34;5004072;28;20114;-65
2022/10/23 07:41:06;;;;;;;4.68;3.80;;;;;;;-140.72;100.00;52873.81;5009806;28;20030;-65
2022/10/23 07:43:32;;;;;;;7.55;3.80;;;;;;;-140.72;100.00;52883.97;5004947;28;20441;-66
2022/10/23 07:45:58;;;;;;;7.50;3.45;;;;;;;-140.72;100.00;52912.38;5007294;28;20026;-65
2022/10/23 07:48:26;;;;;;;5.55;3.85;;;;;;;-140.72;100.00;52877.88;5006748;28;20030;-66
2022/10/23 07:50:51;;;;;;;4.70;3.63;;;;;;;-140.72;100.00;52892.09;5007132;28;20506;-65
2022/10/23 07:53:19;;;;;;;5.32;3.58;;;;;;;-140.72;100.00;52894.13;5008401;28;20116;-68
2022/10/23 07:55:58;;;;;;;5.03;3.58;;;;;;;-140.72;100.00;52877.88;5008357;28;20033;-71
2022/10/23 07:58:26;;;;;;;6.15;4.13;;;;;;;-140.72;100.00;52902.22;5007246;28;20040;-66
2022/10/23 08:00:58;;;;;;;6.18;3.78;;;;;;;-140.72;100.00;52888.03;5007932;28;20030;-67
2022/10/23 08:03:28;;;;;;;9.05;3.75;;;;;;;-140.72;100.00;52888.03;5008425;28;20620;-66
2022/10/23 08:05:54;;;;;;;4.35;3.08;;;;;;;-140.72;100.00;52871.78;5006660;28;20464;-66
2022/10/23 08:08:23;;;;;;;5.03;3.17;;;;;;;-140.72;100.00;52867.72;5007254;28;20362;-67
2022/10/23 08:10:50;;;;;;;6.97;3.42;;;;;;;-140.72;100.00;52847.44;5007161;28;20021;-66
2022/10/23 08:13:19;;;;;;;4.30;3.15;;;;;;;-140.72;100.00;52904.25;5007603;28;20087;-66
2022/10/23 08:15:45;;;;;;;4.30;3.13;;;;;;;-140.72;100.00;52906.28;5006471;28;20025;-64
2022/10/23 08:18:11;;;;;;;5.20;3.72;;;;;;;-140.72;100.00;52861.66;5007854;28;20103;-67
2022/10/23 08:20:43;;;;;;;3.42;2.53;;;;;;;-140.72;100.00;52888.03;5007332;28;20060;-67
2022/10/23 08:23:11;;;;;;;3.60;2.88;;;;;;;-140.72;100.00;52861.66;5007838;28;20040;-70
2022/10/23 08:25:37;;;;;;;3.72;2.85;;;;;;;-140.72;100.00;52837.28;5007121;28;20049;-67
2022/10/23 08:28:02;;;;;;;4.32;3.15;;;;;;;-140.72;100.00;52877.88;5007274;28;20029;-67
2022/10/23 08:30:28;;;;;;;8.18;3.45;;;;;;;-140.72;100.00;52912.38;5007623;28;20026;-67
2022/10/23 08:32:53;;;;;;;3.40;2.45;;;;;;;-140.72;100.00;52875.84;5006436;28;20041;-66
2022/10/23 08:35:19;;;;;;;4.80;2.92;;;;;;;-140.72;100.00;52886.00;5004422;28;20025;-69
2022/10/23 08:37:44;;;;;;;5.15;2.90;;;;;;;-140.72;100.00;52890.06;5006200;28;20393;-66
2022/10/23 08:40:30;;;;;;;6.28;3.97;;;;;;;-140.72;100.00;52845.41;5006050;28;20100;-66
2022/10/23 08:43:04;;;;;;;4.60;3.25;;;;;;;-140.72;100.00;52849.47;5006644;28;20750;-67
2022/10/23 08:45:34;;;;;;;3.83;2.88;;;;;;;-140.72;100.00;52865.69;5006129;28;20450;-66
2022/10/23 08:48:09;;;;;;;4.40;2.83;;;;;;;-140.72;100.00;52865.69;5008227;28;20408;-70
2022/10/23 08:50:43;;;;;;;6.25;3.53;;;;;;;-140.72;100.00;52853.53;5007278;28;20247;-69
2022/10/23 08:53:25;;;;;;;3.05;2.42;;;;;;;-140.72;100.00;52847.44;5005329;28;20053;-70
2022/10/23 08:55:58;;;;;;;5.55;2.42;;;;;;;-140.72;100.00;52875.84;5006344;28;20053;-66
2022/10/23 08:58:34;;;;;;;4.30;2.72;;;;;;;-140.72;100.00;52873.81;5007578;28;20033;-68
2022/10/23 09:01:08;;;;;;;5.30;3.28;;;;;;;-140.72;100.00;52867.72;5007019;28;20047;-66
2022/10/23 09:03:34;;;;;;;3.40;2.20;;;;;;;-140.72;100.00;52898.16;5007940;28;20029;-68
2022/10/23 09:06:04;;;;;;;3.88;2.83;;;;;;;-140.72;100.00;52825.13;5006578;28;20034;-71
2022/10/23 09:08:33;;;;;;;6.18;3.53;;;;;;;-140.72;100.00;52865.69;5005908;28;20026;-66
2022/10/23 09:11:17;;;;;;;3.92;2.33;;;;;;;-140.72;100.00;52837.28;5007478;28;20373;-66
2022/10/23 09:13:51;;;;;;;3.67;2.78;;;;;;;-140.72;100.00;52796.72;5006711;28;20028;-69
2022/10/23 09:16:52;;;;;;;8.02;2.60;;;;;;;-140.72;100.00;52849.47;5006100;28;20060;-66
2022/10/23 09:19:25;;;;;;;2.67;1.85;;;;;;;-140.72;100.00;52843.38;4952849;28;20033;-67
2022/10/23 09:21:50;;;;;;;3.70;2.42;;;;;;;-140.72;100.00;52847.44;5007092;28;20033;-70
2022/10/23 09:24:18;;;;;;;3.67;2.38;;;;;;;-140.72;100.00;52857.59;5007574;28;20037;-68
2022/10/23 09:26:48;;;;;;;4.40;2.70;;;;;;;-140.72;100.00;52877.88;5005081;28;20030;-66
2022/10/23 09:29:21;;;;;;;;;;;;;;;-140.72;100.00;52867.72;5005467;28;20481;-65
2022/10/23 09:32:02;;;;;;;6.47;2.75;;;;;;;-140.72;100.00;52855.56;5005258;28;19955;-68
2022/10/23 09:34:29;;;;;;;4.65;2.45;;;;;;;-140.72;100.00;52837.28;5006315;28;20137;-66
2022/10/23 09:36:58;;;;;;;3.38;2.45;;;;;;;-140.72;100.00;52819.03;5007722;28;20353;-68
2022/10/23 09:39:38;;;;;;;5.10;2.13;;;;;;;-140.72;100.00;52821.06;5008326;28;20415;-66
2022/10/23 09:42:32;;;;;;;4.25;2.17;;;;;;;-140.72;100.00;52886.00;5007946;28;20025;-68
2022/10/23 09:44:58;;;;;;;5.85;2.95;;;;;;;-140.72;100.00;52853.53;4980815;28;20048;-67
2022/10/23 09:47:27;;;;;;;3.85;2.55;;;;;;;-140.72;100.00;52833.22;5006103;28;20101;-68
2022/10/23 09:49:55;;;;;;;3.63;2.63;;;;;;;-140.72;100.00;52821.06;5007667;28;20026;-68
2022/10/23 09:52:24;;;;;;;4.00;2.25;;;;;;;-140.72;100.00;52812.94;5008188;28;20029;-67
2022/10/23 09:54:57;;;;;;;4.20;2.17;;;;;;;-140.72;100.00;52808.88;5008588;28;21057;-66
2022/10/23 09:57:29;;;;;;;3.63;2.53;;;;;;;-140.72;100.00;52827.16;5006460;28;20022;-66
2022/10/23 09:59:58;;;;;;;4.10;2.47;;;;;;;-140.72;100.00;52825.13;5007389;28;20028;-67
2022/10/23 10:02:30;;;;;;;3.85;2.55;;;;;;;-140.72;100.00;52804.81;5010216;28;20029;-68
2022/10/23 10:04:56;;;;;;;3.72;2.40;;;;;;;-140.72;100.00;52849.47;5010584;28;20049;-68
2022/10/23 10:07:25;;;;;;;6.78;2.20;;;;;;;-140.72;100.00;52786.56;5004910;28;20027;-69
2022/10/23 10:09:52;;;;;;;3.60;2.20;;;;;;;-140.72;100.00;52841.34;5008400;28;20446;-66
2022/10/23 10:12:53;;;;;;;4.10;2.97;;;;;;;-140.72;100.00;52784.53;5011157;28;20037;-68
2022/10/23 10:15:37;;;;;;;2.55;1.83;;;;;;;-140.72;100.00;52806.84;5007603;28;20022;-66
2022/10/23 10:18:16;;;;;;;3.40;2.28;;;;;;;-140.72;100.00;52823.09;5010114;28;20105;-71
2022/10/23 10:20:58;;;;;;;3.33;2.25;;;;;;;-140.72;100.00;52814.97;5004589;28;20056;-69
2022/10/23 10:23:38;;;;;;;3.83;2.60;;;;;;;-140.72;100.00;52806.84;5009931;28;20034;-68
2022/10/23 10:26:14;;;;;;;3.83;2.05;;;;;;;-140.72;100.00;52825.13;5009863;28;20025;-69
2022/10/23 10:28:42;;;;;;;5.70;2.88;;;;;;;-140.72;100.00;52780.47;5010527;28;20030;-66
2022/10/23 10:31:39;;;;;;;3.17;2.15;;;;;;;-140.72;100.00;52778.44;5011131;28;20036;-69
2022/10/23 10:34:11;;;;;;;3.92;2.35;;;;;;;-140.72;100.00;52833.22;5006562;28;20442;-66
2022/10/23 10:37:02;;;;;;;3.88;1.60;;;;;;;-140.72;100.00;52835.25;5011306;28;20030;-66
2022/10/23 10:40:15;;;;;;;5.30;2.10;;;;;;;-140.72;100.00;52812.94;5009630;28;20125;-68
2022/10/23 10:43:02;;;;;;;9.63;2.63;;;;;;;-140.72;100.00;52790.63;4948650;28;20368;-70
2022/10/23 10:45:40;;;;;;;8.63;2.78;;;;;;;-140.72;100.00;52800.75;5002215;28;20108;-67
2022/10/23 10:48:40;;;;;;;4.18;2.13;;;;;;;-140.72;100.00;52788.59;5004647;28;20037;-70
2022/10/23 10:51:13;;;;;;;4.55;2.35;;;;;;;-140.72;100.00;52788.59;5007589;28;20473;-66
2022/10/23 10:54:09;;;;;;;3.22;2.05;;;;;;;-140.72;100.00;52750.03;5005716;28;20029;-67
2022/10/23 10:56:40;;;;;;;3.40;2.60;;;;;;;-140.72;100.00;52764.25;5006176;28;20025;-67
2022/10/23 10:59:29;;;;;;;4.95;2.45;;;;;;;-140.72;100.00;52776.41;5010861;28;20361;-70
2022/10/23 11:02:20;;;;;;;5.88;2.22;;;;;;;-140.72;100.00;52774.38;5008782;28;21529;-67
2022/10/23 11:05:28;;;;;;;2.92;1.83;;;;;;;-140.72;100.00;52739.88;5007063;28;20030;-67
2022/10/23 11:08:13;;;;;;;2.95;2.03;;;;;;;-140.72;100.00;52737.84;4998902;28;20033;-68
2022/10/23 11:10:44;;;;;;;4.10;2.28;;;;;;;-140.72;100.00;52768.28;5009797;28;20041;-67
2022/10/23 11:13:23;;;;;;;3.35;1.73;;;;;;;-140.72;100.00;52739.88;5009621;28;20121;-66
2022/10/23 11:15:50;;;;;;;2.85;1.83;;;;;;;-140.72;100.00;52745.97;5007938;28;20026;-67
2022/10/23 11:18:24;;;;;;;5.72;2.38;;;;;;;-140.72;100.00;52715.53;5009575;28;20061;-69
2022/10/23 11:21:09;;;;;;;3.53;1.67;;;;;;;-140.72;100.00;52717.56;5009668;28;20072;-67
2022/10/23 11:24:01;;;;;;;3.40;1.70;;;;;;;-140.72;100.00;52727.72;5010730;28;20057;-69
2022/10/23 11:26:36;;;;;;;3.20;1.65;;;;;;;-140.72;100.00;52725.69;5009759;28;20026;-68